Pagina principale
METAR-TAF:

METAR-TAF

Aeroporti :

Aeroporto Internazionale di Baghdad

Baghdad, Iraq

latitudine: 33-15-45N, longitudine: 44-14-04E, altezza: 35 m

Osservazione

Il bollettino è stato emesso 1 ora e 3 minuti fa, alle 06:00 UTC
Vento 5 kt da nord-ovest
Temperature 14°C
Umidità 77%
Pressione 1020 hPa
Visibilità: 3500 m
foschia

METAR: ORBI 180600Z 31005KT 3500 BR 14/10 Q1020 NOSIG

Ora: 10:03 (07:03 UTC)

Previsione

Il bollettino è stato emesso 4 ore e 3 minuti fa, alle 03:00 UTC
Previsione valida dal 18 alle 06 UTC al 19 alle 06 UTC
Vento 6 kt da nord-ovest
Visibilità: 5000 m
Poco nuvoloso ad un'altezza di 3000 ft

TAF: ORBI 180300Z 1806/1906 32006KT 5000 FEW030

Osservazioni e previsioni meteorologiche di più di 4000 aeroporti (messaggi METAR e TAF).

Le stazioni disponibili sono rappresentate dai dischi gialli e rossi sulla carta.

Puntare il mouse per vedere il nome della stazione.

Clicca sopra per visualizzare le osservazioni e previsioni meteorologiche.

Per cambiare la mappa : fare clic sui pulsanti verdi con una croce nera per ingrandire, il pulsante verde con un trattino per diminuire, o sulla freccia verde per le mappe adiacenti.


METAR-TAF: